Time;durP1;ratioP1;P1;durP2;ratioP2;P2;SDS_P1;SDS_P2;PMS_P1;PMS_P2;Temp;Humidity;BMP_temperature;BMP_pressure;BME280_temperature;BME280_humidity;BME280_pressure;Samples;Min_cycle;Max_cycle;Signal;HPM_P1;HPM_P2
2024/02/16 00:00:03;;;;;;;22.07;13.20;;;;;;;7.72;100.00;101159.72;6100146;23;20881;-74
2024/02/16 00:02:39;;;;;;;24.70;14.67;;;;;;;7.70;100.00;101153.94;6090345;23;20506;-74
2024/02/16 00:05:07;;;;;;;22.87;13.93;;;;;;;7.68;100.00;101156.09;6100144;23;20169;-74
2024/02/16 00:07:34;;;;;;;20.87;13.13;;;;;;;7.65;100.00;101154.81;6100536;23;20195;-74
2024/02/16 00:10:00;;;;;;;22.60;13.50;;;;;;;7.64;100.00;101152.47;6100016;23;20209;-74
2024/02/16 00:12:27;;;;;;;26.23;14.23;;;;;;;7.62;100.00;101149.38;6100918;23;20182;-75
2024/02/16 00:14:53;;;;;;;20.83;13.10;;;;;;;7.59;100.00;101147.31;6100553;23;20193;-74
2024/02/16 00:17:19;;;;;;;26.07;13.30;;;;;;;7.57;100.00;101149.47;6101426;23;20198;-74
2024/02/16 00:19:47;;;;;;;24.17;14.03;;;;;;;7.55;100.00;101152.38;6100056;23;20167;-74
2024/02/16 00:22:13;;;;;;;22.63;13.67;;;;;;;7.53;100.00;101149.28;6099856;23;20188;-74
2024/02/16 00:24:40;;;;;;;20.03;12.83;;;;;;;7.49;100.00;101143.03;6099513;23;20189;-74
2024/02/16 00:27:06;;;;;;;22.63;13.23;;;;;;;7.48;100.00;101138.88;6100437;23;20628;-74
2024/02/16 00:29:32;;;;;;;25.63;13.97;;;;;;;7.46;100.00;101130.47;6100381;23;20167;-74
2024/02/16 00:31:59;;;;;;;24.27;13.27;;;;;;;7.45;100.00;101138.66;6101505;23;20188;-74
2024/02/16 00:34:26;;;;;;;22.90;13.53;;;;;;;7.41;100.00;101135.06;6101904;23;20166;-74
2024/02/16 00:36:54;;;;;;;22.03;13.70;;;;;;;7.39;100.00;101129.28;6102602;23;20395;-74
2024/02/16 00:39:21;;;;;;;21.83;14.00;;;;;;;7.37;100.00;101126.19;6102685;23;20186;-74
2024/02/16 00:41:48;;;;;;;20.23;12.67;;;;;;;7.35;100.00;101133.59;6066993;23;20230;-74
2024/02/16 00:44:14;;;;;;;21.63;12.80;;;;;;;7.32;100.00;101127.06;6102418;23;20170;-75
2024/02/16 00:46:41;;;;;;;22.87;13.30;;;;;;;7.31;100.00;101128.13;6102419;23;20174;-74
2024/02/16 00:49:10;;;;;;;22.27;13.53;;;;;;;7.29;100.00;101121.59;6102824;23;20747;-74
2024/02/16 00:51:36;;;;;;;23.63;13.60;;;;;;;7.28;100.00;101115.59;6102474;23;20265;-74
2024/02/16 00:54:04;;;;;;;21.83;13.10;;;;;;;7.26;100.00;101120.31;6102302;23;20177;-74
2024/02/16 00:56:30;;;;;;;23.53;11.83;;;;;;;7.26;100.00;101116.94;6066940;23;20178;-74
2024/02/16 00:58:57;;;;;;;22.13;13.17;;;;;;;7.25;100.00;101115.38;6102035;23;20184;-75
2024/02/16 01:01:24;;;;;;;21.33;12.47;;;;;;;7.24;100.00;101105.94;6102380;23;20166;-74
2024/02/16 01:03:53;;;;;;;20.70;12.77;;;;;;;7.23;100.00;101104.38;6102507;23;20166;-74
2024/02/16 01:06:19;;;;;;;20.33;12.80;;;;;;;7.21;100.00;101111.78;6099608;23;20170;-75
2024/02/16 01:08:47;;;;;;;24.13;12.90;;;;;;;7.19;100.00;101104.19;6099832;23;20178;-74
2024/02/16 01:11:14;;;;;;;19.37;12.10;;;;;;;7.17;100.00;101114.22;6100406;23;20218;-73
2024/02/16 01:13:41;;;;;;;21.43;12.87;;;;;;;7.17;100.00;101108.16;6065200;23;20189;-74
2024/02/16 01:16:08;;;;;;;24.70;13.07;;;;;;;7.16;100.00;101112.66;6100235;23;20176;-74
2024/02/16 01:18:36;;;;;;;22.43;12.97;;;;;;;7.16;100.00;101106.63;6101355;23;20233;-74
2024/02/16 01:21:03;;;;;;;26.63;13.17;;;;;;;7.15;100.00;101110.31;6100565;23;20165;-74
2024/02/16 01:23:29;;;;;;;20.57;12.90;;;;;;;7.15;100.00;101110.31;6100400;23;20163;-74
2024/02/16 01:25:55;;;;;;;23.87;13.23;;;;;;;7.13;100.00;101107.97;6100862;23;20171;-74
2024/02/16 01:28:23;;;;;;;23.23;13.43;;;;;;;7.13;100.00;101113.22;6100634;23;20190;-74
2024/02/16 01:30:50;;;;;;;23.33;13.07;;;;;;;7.13;100.00;101112.44;6100327;23;20222;-74
2024/02/16 01:33:17;;;;;;;22.10;13.10;;;;;;;7.11;100.00;101107.50;6100313;23;20186;-74
2024/02/16 01:35:43;;;;;;;22.77;13.73;;;;;;;7.10;100.00;101116.41;6065360;23;20177;-74
2024/02/16 01:38:09;;;;;;;21.63;12.83;;;;;;;7.10;100.00;101107.78;6100307;23;20179;-74
2024/02/16 01:40:36;;;;;;;24.17;13.50;;;;;;;7.09;100.00;101106.97;6100895;23;20170;-74
2024/02/16 01:43:02;;;;;;;24.03;12.53;;;;;;;7.08;100.00;101107.25;6100185;23;20175;-74
2024/02/16 01:45:30;;;;;;;27.67;14.13;;;;;;;7.07;100.00;101117.00;6100446;23;20227;-74
2024/02/16 01:47:56;;;;;;;24.57;12.73;;;;;;;7.05;100.00;101108.63;6063924;23;20480;-74
2024/02/16 01:50:23;;;;;;;23.93;13.17;;;;;;;7.04;100.00;101109.69;6064675;23;20518;-74
2024/02/16 01:56:36;;;;;;;23.57;13.00;;;;;;;7.01;100.00;101099.78;6099901;23;20202;-74
2024/02/16 01:59:04;;;;;;;25.13;13.40;;;;;;;7.00;100.00;101102.69;6101472;23;20190;-74
2024/02/16 02:01:32;;;;;;;23.57;12.43;;;;;;;6.98;100.00;101100.34;6101827;23;20170;-75
2024/02/16 02:03:58;;;;;;;24.63;13.37;;;;;;;6.98;100.00;101096.94;6101533;23;20166;-74
2024/02/16 02:06:46;;;;;;;24.83;13.47;;;;;;;6.97;100.00;101105.88;6100329;23;20170;-75
2024/02/16 02:12:59;;;;;;;22.07;12.87;;;;;;;6.91;100.00;101107.81;6101828;23;20200;-74
2024/02/16 02:15:26;;;;;;;24.17;13.33;;;;;;;6.88;100.00;101105.78;6101894;23;20644;-74
2024/02/16 02:17:54;;;;;;;25.00;13.17;;;;;;;6.87;100.00;101103.41;6101886;23;20197;-74
2024/02/16 02:20:20;;;;;;;25.07;12.93;;;;;;;6.85;100.00;101105.56;6101768;23;20166;-74
2024/02/16 02:22:51;;;;;;;24.57;13.40;;;;;;;6.83;100.00;101100.59;6066656;23;20174;-74
2024/02/16 02:29:05;;;;;;;25.33;12.80;;;;;;;6.78;100.00;101095.44;6101908;23;20185;-74
2024/02/16 02:31:31;;;;;;;29.57;14.63;;;;;;;6.76;100.00;101087.06;6102323;23;20181;-74
2024/02/16 02:33:57;;;;;;;24.90;12.93;;;;;;;6.74;100.00;101089.19;6101229;23;20643;-74
2024/02/16 02:40:14;;;;;;;24.93;12.03;;;;;;;6.71;100.00;101075.88;6102115;23;20241;-74
2024/02/16 02:42:40;;;;;;;26.60;13.40;;;;;;;6.70;100.00;101076.94;6101661;23;20222;-74
2024/02/16 02:45:08;;;;;;;22.03;12.43;;;;;;;6.69;100.00;101073.53;6103949;23;20250;-74
2024/02/16 02:47:35;;;;;;;26.23;13.30;;;;;;;6.69;100.00;101060.41;6068801;23;20202;-73
2024/02/16 02:50:01;;;;;;;25.37;13.43;;;;;;;6.69;100.00;101067.53;6104061;23;20250;-73
2024/02/16 02:52:28;;;;;;;26.17;13.77;;;;;;;6.69;100.00;101059.66;6103684;23;20182;-74
2024/02/16 02:54:54;;;;;;;22.60;13.40;;;;;;;6.70;100.00;101055.94;6103610;23;20162;-74
2024/02/16 02:57:22;;;;;;;29.33;14.10;;;;;;;6.71;100.00;101062.75;6103428;23;20292;-75
2024/02/16 02:59:48;;;;;;;25.60;13.33;;;;;;;6.70;100.00;101054.13;6103799;23;20189;-74
2024/02/16 03:02:14;;;;;;;25.00;14.23;;;;;;;6.73;100.00;101048.28;6104353;23;20166;-74
2024/02/16 03:04:41;;;;;;;29.23;14.70;;;;;;;6.76;100.00;101050.34;6103202;23;20247;-74
2024/02/16 03:07:07;;;;;;;25.73;13.50;;;;;;;6.77;100.00;101049.25;6102728;23;20625;-74
2024/02/16 03:09:34;;;;;;;29.10;13.90;;;;;;;6.78;100.00;101048.19;6103333;23;20504;-74
2024/02/16 03:12:01;;;;;;;25.13;13.27;;;;;;;6.83;100.00;101047.34;6067894;23;20208;-74
2024/02/16 03:14:29;;;;;;;29.83;15.10;;;;;;;6.85;100.00;101056.50;6103311;23;20559;-74
2024/02/16 03:16:55;;;;;;;35.00;15.57;;;;;;;6.90;100.00;101047.72;6102844;23;20166;-74
2024/02/16 03:19:22;;;;;;;32.97;14.17;;;;;;;6.93;100.00;101055.81;6067988;23;20190;-74
2024/02/16 03:21:49;;;;;;;36.53;16.17;;;;;;;6.97;100.00;101054.16;6067950;23;20174;-74
2024/02/16 03:24:15;;;;;;;32.30;16.30;;;;;;;6.99;100.00;101046.78;6101466;23;20166;-74
2024/02/16 03:26:41;;;;;;;29.70;15.20;;;;;;;7.03;100.00;101049.59;6102767;23;20253;-75
2024/02/16 03:29:08;;;;;;;26.07;13.60;;;;;;;7.07;100.00;101048.72;6103293;23;20182;-75
2024/02/16 03:31:35;;;;;;;29.07;15.30;;;;;;;7.09;100.00;101054.47;6103144;23;20162;-74
2024/02/16 03:34:02;;;;;;;29.70;16.03;;;;;;;7.12;100.00;101064.41;6103131;23;20632;-74
2024/02/16 03:36:28;;;;;;;33.60;16.27;;;;;;;7.12;100.00;101061.78;6103110;23;20162;-75
2024/02/16 03:38:55;;;;;;;33.03;14.80;;;;;;;7.14;100.00;101049.13;6102959;23;20190;-74
2024/02/16 03:41:23;;;;;;;29.50;15.30;;;;;;;7.16;100.00;101049.63;6102984;23;20256;-74
2024/02/16 03:43:50;;;;;;;32.93;15.50;;;;;;;7.18;100.00;101039.59;6102950;23;20196;-75
2024/02/16 03:46:16;;;;;;;32.90;15.93;;;;;;;7.19;100.00;101049.03;6102916;23;20652;-75
2024/02/16 03:48:44;;;;;;;31.03;16.63;;;;;;;7.21;100.00;101038.25;6102918;23;20759;-74
2024/02/16 03:51:11;;;;;;;38.93;16.60;;;;;;;7.22;100.00;101045.84;6103238;23;20179;-75
2024/02/16 03:53:37;;;;;;;28.93;14.43;;;;;;;7.23;100.00;101043.97;6103254;23;20182;-74
2024/02/16 03:56:05;;;;;;;34.60;15.33;;;;;;;7.23;100.00;101034.25;6100341;23;20650;-74
2024/02/16 03:58:32;;;;;;;28.50;15.70;;;;;;;7.27;100.00;101027.34;6102857;23;20188;-75
2024/02/16 04:00:58;;;;;;;29.90;15.70;;;;;;;7.28;100.00;101023.66;6067805;23;20174;-74
2024/02/16 04:03:25;;;;;;;29.57;14.40;;;;;;;7.31;100.00;101024.91;6103163;23;20171;-74
2024/02/16 04:05:52;;;;;;;31.93;15.37;;;;;;;7.34;100.00;101017.22;6103035;23;20170;-74
2024/02/16 04:08:19;;;;;;;31.37;15.20;;;;;;;7.37;100.00;101018.50;6101307;23;20238;-75
2024/02/16 04:10:46;;;;;;;33.73;16.40;;;;;;;7.38;100.00;101022.66;6102074;23;20282;-74
2024/02/16 04:13:12;;;;;;;30.90;15.10;;;;;;;7.40;100.00;101023.94;6102590;23;20205;-75
2024/02/16 04:15:39;;;;;;;28.70;15.13;;;;;;;7.44;100.00;101026.75;6102378;23;20576;-75
2024/02/16 04:18:06;;;;;;;27.10;14.47;;;;;;;7.47;100.00;101031.41;6102718;23;20186;-75
2024/02/16 04:20:33;;;;;;;34.47;15.93;;;;;;;7.49;100.00;101030.06;6102656;23;20174;-75
2024/02/16 04:23:00;;;;;;;31.17;15.90;;;;;;;7.50;100.00;101022.97;6067124;23;20168;-74
2024/02/16 04:25:27;;;;;;;30.87;16.20;;;;;;;7.53;100.00;101031.03;6102589;23;20168;-74
2024/02/16 04:27:54;;;;;;;33.37;16.87;;;;;;;7.52;100.00;101023.44;6102704;23;20269;-75
2024/02/16 04:30:21;;;;;;;32.87;16.17;;;;;;;7.55;100.00;101022.84;6067356;23;20186;-75
2024/02/16 04:32:48;;;;;;;28.57;14.87;;;;;;;7.55;100.00;101023.63;6102259;23;20214;-74
2024/02/16 04:35:15;;;;;;;28.40;15.47;;;;;;;7.57;100.00;101026.72;6102312;23;20207;-74
2024/02/16 04:37:41;;;;;;;31.30;16.40;;;;;;;7.58;100.00;101027.50;6102362;23;20187;-74
2024/02/16 04:40:11;;;;;;;31.43;15.23;;;;;;;7.58;100.00;101027.50;6067155;23;20181;-74
2024/02/16 04:42:38;;;;;;;27.83;14.97;;;;;;;7.57;100.00;101020.72;6101009;23;20166;-74
2024/02/16 04:45:05;;;;;;;30.33;15.97;;;;;;;7.57;100.00;101010.97;6101659;23;20620;-75
2024/02/16 04:47:32;;;;;;;29.03;15.60;;;;;;;7.57;100.00;101013.59;6066640;23;20199;-74
2024/02/16 04:49:58;;;;;;;27.67;15.43;;;;;;;7.58;100.00;101009.91;6102348;23;20508;-74
2024/02/16 04:52:25;;;;;;;29.07;14.50;;;;;;;7.56;100.00;101016.53;6102085;23;20504;-74
2024/02/16 04:54:51;;;;;;;30.07;15.03;;;;;;;7.55;100.00;101010.47;6102221;23;20205;-75
2024/02/16 04:57:19;;;;;;;27.00;14.60;;;;;;;7.53;100.00;101015.28;6101910;23;20163;-75
2024/02/16 04:59:45;;;;;;;29.50;15.60;;;;;;;7.51;100.00;101020.03;6102259;23;20176;-74
2024/02/16 05:02:12;;;;;;;29.03;15.10;;;;;;;7.49;100.00;101014.28;6102117;23;20174;-74
2024/02/16 05:04:38;;;;;;;28.93;14.43;;;;;;;7.48;100.00;101010.13;6101993;23;20264;-74
2024/02/16 05:07:05;;;;;;;28.07;15.50;;;;;;;7.47;100.00;101011.19;6100844;23;20170;-74
2024/02/16 05:09:33;;;;;;;30.13;16.27;;;;;;;7.44;100.00;101018.84;6066714;23;20202;-74
2024/02/16 05:11:59;;;;;;;30.83;14.97;;;;;;;7.43;100.00;101019.94;6102176;23;20185;-74
2024/02/16 05:14:27;;;;;;;28.70;15.10;;;;;;;7.40;100.00;101015.28;6066532;23;20761;-74
2024/02/16 05:16:54;;;;;;;22.67;14.33;;;;;;;7.37;100.00;101006.13;6066168;23;20700;-75
2024/02/16 05:19:21;;;;;;;27.97;15.00;;;;;;;7.36;100.00;101001.16;6101852;23;20203;-74
2024/02/16 05:21:47;;;;;;;30.83;15.30;;;;;;;7.33;100.00;100992.03;6101874;23;20178;-75
2024/02/16 05:24:17;;;;;;;28.57;14.80;;;;;;;7.32;100.00;100997.56;6101993;23;20243;-75
2024/02/16 05:26:43;;;;;;;32.43;15.77;;;;;;;7.29;100.00;100991.06;6101660;23;20810;-74
2024/02/16 05:29:10;;;;;;;31.90;16.13;;;;;;;7.26;100.00;100990.88;6101620;23;20218;-74
2024/02/16 05:31:38;;;;;;;31.53;15.20;;;;;;;7.25;100.00;100992.69;6101191;23;20172;-75
2024/02/16 05:34:04;;;;;;;31.80;14.33;;;;;;;7.22;100.00;100993.31;6101777;23;20182;-75
2024/02/16 05:36:35;;;;;;;31.57;15.63;;;;;;;7.22;100.00;100998.56;6101811;23;20166;-74
2024/02/16 05:39:09;;;;;;;29.60;15.17;;;;;;;7.20;100.00;101005.16;6101971;23;20237;-73
2024/02/16 05:41:37;;;;;;;28.13;15.40;;;;;;;7.19;100.00;101003.63;6101729;23;20224;-75
2024/02/16 05:44:03;;;;;;;31.40;15.67;;;;;;;7.18;100.00;100999.41;6101844;23;20638;-74
2024/02/16 05:46:29;;;;;;;28.37;14.83;;;;;;;7.15;100.00;100998.16;6101362;23;20178;-74
2024/02/16 05:48:57;;;;;;;30.10;14.40;;;;;;;7.15;100.00;100995.53;6066401;23;20539;-74
2024/02/16 05:51:24;;;;;;;30.40;15.20;;;;;;;7.14;100.00;100996.59;6101725;23;20171;-74
2024/02/16 05:53:51;;;;;;;28.83;16.00;;;;;;;7.13;100.00;100999.50;6102091;23;20282;-75
2024/02/16 05:56:17;;;;;;;26.07;14.97;;;;;;;7.10;100.00;101005.38;6065817;23;20576;-75
2024/02/16 05:58:43;;;;;;;28.27;14.57;;;;;;;7.07;100.00;101014.59;6101753;23;20575;-75
2024/02/16 06:01:12;;;;;;;27.37;15.37;;;;;;;7.05;100.00;101008.84;6101472;23;20507;-75
2024/02/16 06:03:38;;;;;;;29.30;15.40;;;;;;;7.03;100.00;100999.69;6101471;23;20193;-75
2024/02/16 06:06:08;;;;;;;27.73;15.60;;;;;;;7.01;100.00;101001.84;6100273;23;20526;-74
2024/02/16 06:08:34;;;;;;;34.93;15.63;;;;;;;6.97;100.00;100999.03;6101413;23;20269;-75
2024/02/16 06:11:01;;;;;;;26.77;15.53;;;;;;;6.96;100.00;100994.06;6101438;23;20699;-74
2024/02/16 06:13:29;;;;;;;28.37;14.80;;;;;;;6.95;100.00;101005.66;6101922;23;20181;-74
2024/02/16 06:15:56;;;;;;;30.23;14.57;;;;;;;6.94;100.00;101002.22;6101141;23;20169;-75
2024/02/16 06:18:23;;;;;;;32.63;16.00;;;;;;;6.94;100.00;100993.59;6102444;23;20182;-75
2024/02/16 06:20:49;;;;;;;31.17;16.13;;;;;;;6.92;100.00;100991.25;6103540;23;20162;-74
2024/02/16 06:23:17;;;;;;;29.00;14.50;;;;;;;6.92;100.00;100995.72;6103249;23;20162;-74
2024/02/16 06:25:44;;;;;;;27.93;15.30;;;;;;;6.92;100.00;100998.34;6102443;23;20224;-74
2024/02/16 06:28:10;;;;;;;29.80;15.37;;;;;;;6.93;100.00;101007.75;6101584;23;20264;-74
2024/02/16 06:30:36;;;;;;;31.80;16.67;;;;;;;6.93;100.00;101002.50;6102325;23;20166;-74
2024/02/16 06:33:03;;;;;;;28.33;15.87;;;;;;;6.93;100.00;101013.00;6101893;23;20162;-74
2024/02/16 06:35:30;;;;;;;28.67;15.27;;;;;;;6.94;100.00;101025.84;6067395;23;20174;-74
2024/02/16 06:37:56;;;;;;;30.80;15.37;;;;;;;6.92;100.00;101020.13;6100569;23;20189;-75
2024/02/16 06:40:26;;;;;;;31.13;16.33;;;;;;;6.92;100.00;101019.34;6066204;23;20185;-74
2024/02/16 06:42:52;;;;;;;27.57;15.50;;;;;;;6.91;100.00;101020.41;6101720;23;20163;-74
2024/02/16 06:45:18;;;;;;;31.17;15.87;;;;;;;6.89;100.00;101015.44;6099912;23;20252;-75
2024/02/16 06:47:46;;;;;;;29.77;15.70;;;;;;;6.88;100.00;101015.75;6101153;23;20225;-74
2024/02/16 06:50:12;;;;;;;32.93;16.67;;;;;;;6.89;100.00;101012.81;6100950;23;20559;-74
2024/02/16 06:52:41;;;;;;;30.43;15.60;;;;;;;6.88;100.00;101013.91;6099960;23;20306;-74
2024/02/16 06:55:08;;;;;;;29.50;15.20;;;;;;;6.90;100.00;101021.47;6101080;23;20209;-74
2024/02/16 06:57:36;;;;;;;33.57;16.37;;;;;;;6.91;100.00;101007.28;6101649;23;20182;-74
2024/02/16 07:00:08;;;;;;;28.97;16.13;;;;;;;6.92;100.00;101011.47;6101031;23;20704;-75
2024/02/16 07:02:34;;;;;;;34.87;16.77;;;;;;;6.94;100.00;101017.97;6096865;23;20181;-75
2024/02/16 07:05:01;;;;;;;35.00;17.27;;;;;;;6.97;100.00;101014.78;6063184;23;20502;-75
2024/02/16 07:07:27;;;;;;;31.10;15.53;;;;;;;7.01;100.00;101021.03;6099623;23;20256;-75
2024/02/16 07:09:55;;;;;;;32.37;16.17;;;;;;;7.05;100.00;101015.97;6064198;23;20181;-75
2024/02/16 07:12:21;;;;;;;37.87;17.27;;;;;;;7.09;100.00;101019.56;6101809;23;20172;-74
2024/02/16 07:14:50;;;;;;;40.30;19.00;;;;;;;7.13;100.00;101021.31;6101518;23;20178;-74
2024/02/16 07:17:16;;;;;;;35.00;18.47;;;;;;;7.20;100.00;101026.19;6101890;23;20196;-74
2024/02/16 07:19:43;;;;;;;37.33;18.90;;;;;;;7.26;100.00;101028.41;6101508;23;20259;-75
2024/02/16 07:22:09;;;;;;;37.07;18.67;;;;;;;7.33;100.00;101026.19;6066398;23;20177;-75
2024/02/16 07:24:36;;;;;;;33.97;17.93;;;;;;;7.40;100.00;101031.81;6101089;23;20167;-74
2024/02/16 07:27:02;;;;;;;37.57;19.17;;;;;;;7.47;100.00;101032.22;6102100;23;20171;-75
2024/02/16 07:29:29;;;;;;;41.13;19.60;;;;;;;7.56;100.00;101032.28;6100457;23;20186;-74
2024/02/16 07:31:56;;;;;;;39.77;19.70;;;;;;;7.65;100.00;101020.78;6101872;23;20172;-74
2024/02/16 07:34:23;;;;;;;42.53;21.00;;;;;;;7.76;100.00;101016.88;6101288;23;20183;-74
2024/02/16 07:36:49;;;;;;;44.17;20.50;;;;;;;7.86;100.00;101007.97;6101310;23;20217;-74
2024/02/16 07:39:16;;;;;;;43.30;21.07;;;;;;;7.97;100.00;101009.34;6101954;23;20191;-75
2024/02/16 07:41:42;;;;;;;50.53;21.63;;;;;;;8.08;100.00;100997.50;6100837;23;20512;-74
2024/02/16 07:44:08;;;;;;;46.20;22.67;;;;;;;8.19;100.00;100999.56;6101533;23;20502;-75
2024/02/16 07:46:40;;;;;;;47.60;24.00;;;;;;;8.31;100.00;100994.59;6101288;23;20202;-75
2024/02/16 07:49:10;;;;;;;53.07;25.27;;;;;;;8.40;100.00;100992.81;6101507;23;20267;-74
2024/02/16 07:51:37;;;;;;;46.43;23.37;;;;;;;8.49;100.00;100992.84;6100168;23;20176;-74
2024/02/16 07:54:04;;;;;;;46.47;23.87;;;;;;;8.60;100.00;100991.53;6100696;23;20265;-75
2024/02/16 07:56:30;;;;;;;59.67;25.10;;;;;;;8.67;100.00;100990.00;6064936;23;20170;-74
2024/02/16 07:58:56;;;;;;;53.03;25.57;;;;;;;8.75;100.00;100988.50;6101163;23;20227;-74
2024/02/16 08:01:23;;;;;;;54.47;25.67;;;;;;;8.86;100.00;100992.44;6100246;23;20624;-75
2024/02/16 08:03:50;;;;;;;50.50;25.40;;;;;;;8.90;100.00;100996.00;6100827;23;20255;-74
2024/02/16 08:06:20;;;;;;;50.30;24.53;;;;;;;8.98;100.00;101003.94;6099368;23;20204;-74
2024/02/16 08:08:47;;;;;;;51.53;25.07;;;;;;;9.07;100.00;101002.09;6065789;23;20194;-74
2024/02/16 08:11:13;;;;;;;46.73;25.07;;;;;;;9.17;100.00;100998.44;6099981;23;20329;-74
2024/02/16 08:13:40;;;;;;;51.13;24.63;;;;;;;9.21;100.00;101005.41;6065979;23;20170;-75
2024/02/16 08:16:07;;;;;;;46.97;22.63;;;;;;;9.24;100.00;100999.53;6064123;23;20173;-75
2024/02/16 08:18:33;;;;;;;42.57;22.43;;;;;;;9.29;100.00;101003.88;6100601;23;20186;-74
2024/02/16 08:20:59;;;;;;;37.40;21.17;;;;;;;9.30;100.00;101000.94;6100975;23;20166;-75
2024/02/16 08:23:27;;;;;;;45.67;23.40;;;;;;;9.32;100.00;100993.50;6101645;23;20387;-74
2024/02/16 08:25:53;;;;;;;40.23;21.47;;;;;;;9.34;100.00;100998.47;6100529;23;20174;-75
2024/02/16 08:28:20;;;;;;;34.37;18.73;;;;;;;9.34;100.00;101003.75;6063956;23;20197;-75
2024/02/16 08:30:46;;;;;;;27.50;17.90;;;;;;;9.33;100.00;101005.63;6100561;23;20672;-74
2024/02/16 08:33:13;;;;;;;29.67;17.53;;;;;;;9.34;100.00;101003.75;6100740;23;20221;-75
2024/02/16 08:35:39;;;;;;;26.53;16.50;;;;;;;9.36;100.00;101006.84;6099609;23;20658;-74
2024/02/16 08:38:10;;;;;;;24.50;15.37;;;;;;;9.36;100.00;101002.34;6099990;23;20190;-74
2024/02/16 08:40:38;;;;;;;21.47;13.47;;;;;;;9.40;100.00;100992.75;6100834;23;20686;-75
2024/02/16 08:43:04;;;;;;;22.20;14.27;;;;;;;9.48;100.00;100983.31;6100127;23;20652;-75
2024/02/16 08:45:31;;;;;;;19.27;12.77;;;;;;;9.53;100.00;100991.06;6099501;23;20241;-74
2024/02/16 08:48:02;;;;;;;22.10;12.90;;;;;;;9.63;100.00;100991.53;6099239;23;20199;-75
2024/02/16 08:50:29;;;;;;;15.70;11.47;;;;;;;9.74;100.00;100984.13;6099629;23;20166;-74
2024/02/16 08:52:55;;;;;;;15.13;10.13;;;;;;;9.84;100.00;100975.91;6099826;23;20252;-74
2024/02/16 08:55:21;;;;;;;14.63;10.77;;;;;;;9.94;100.00;100981.63;6099004;23;20182;-74
2024/02/16 08:57:50;;;;;;;13.13;10.17;;;;;;;10.04;100.00;100980.59;6089798;23;20213;-74
2024/02/16 09:00:17;;;;;;;14.57;9.23;;;;;;;10.11;100.00;100981.66;6099972;23;20693;-75
2024/02/16 09:02:43;;;;;;;14.70;9.10;;;;;;;10.21;100.00;100976.06;6098640;23;20175;-74
2024/02/16 09:05:11;;;;;;;16.37;9.67;;;;;;;10.31;100.00;100985.50;6099003;23;20223;-75
2024/02/16 09:07:37;;;;;;;13.60;9.17;;;;;;;10.39;100.00;100974.16;6098870;23;20188;-74
2024/02/16 09:10:05;;;;;;;11.47;8.37;;;;;;;10.48;100.00;100970.41;6099858;23;20508;-74
2024/02/16 09:12:31;;;;;;;11.30;8.13;;;;;;;10.56;100.00;100966.22;6099678;23;20621;-74
2024/02/16 09:14:59;;;;;;;12.07;7.80;;;;;;;10.65;100.00;100970.38;6100099;23;20184;-75
2024/02/16 09:17:26;;;;;;;11.33;7.80;;;;;;;10.72;100.00;100973.28;6098989;23;20170;-75
2024/02/16 09:19:52;;;;;;;12.10;7.80;;;;;;;10.81;100.00;100976.66;6064930;23;20686;-75
2024/02/16 09:22:19;;;;;;;11.00;7.73;;;;;;;10.88;100.00;100984.13;6063824;23;20201;-75
2024/02/16 09:24:46;;;;;;;12.90;8.47;;;;;;;10.95;100.00;100981.75;6088762;23;20400;-75
2024/02/16 09:27:13;;;;;;;13.57;8.20;;;;;;;11.02;100.00;100979.41;6099302;23;20221;-74
2024/02/16 09:29:39;;;;;;;8.80;6.60;;;;;;;11.09;100.00;100977.03;6100586;23;20694;-75
2024/02/16 09:32:10;;;;;;;11.57;8.10;;;;;;;11.16;100.00;100979.94;6100092;23;20169;-75
2024/02/16 09:34:37;;;;;;;10.73;7.10;;;;;;;11.24;100.00;100981.75;6099973;23;20237;-75
2024/02/16 09:37:04;;;;;;;9.47;6.33;;;;;;;11.31;100.00;100980.16;6098746;23;20162;-75
2024/02/16 09:39:30;;;;;;;11.57;7.23;;;;;;;11.37;100.00;100975.44;6063195;23;20233;-74
2024/02/16 09:41:57;;;;;;;9.70;6.77;;;;;;;11.47;100.00;100981.16;6099149;23;20261;-74
2024/02/16 09:44:24;;;;;;;10.83;6.83;;;;;;;11.57;100.00;100983.44;6098930;23;20657;-75
2024/02/16 09:46:53;;;;;;;10.97;6.77;;;;;;;11.68;100.00;100981.97;6099903;23;20177;-75
2024/02/16 09:49:21;;;;;;;9.23;7.10;;;;;;;11.78;100.00;100972.88;6098880;23;20196;-75
2024/02/16 09:51:48;;;;;;;11.30;6.63;;;;;;;11.88;100.00;100972.47;6099307;23;20166;-75
2024/02/16 09:54:14;;;;;;;9.27;6.10;;;;;;;11.95;100.00;100978.03;6099268;23;20182;-75
2024/02/16 09:56:41;;;;;;;9.27;6.20;;;;;;;12.01;100.00;100980.13;6098488;23;20196;-75
2024/02/16 09:59:08;;;;;;;7.67;5.70;;;;;;;12.14;100.00;100984.41;6099727;23;20216;-75
2024/02/16 10:01:34;;;;;;;9.97;5.87;;;;;;;12.20;100.00;100982.31;6064541;23;20166;-74
2024/02/16 10:04:07;;;;;;;8.27;6.20;;;;;;;12.28;100.00;100987.53;6098893;23;20248;-74
2024/02/16 10:06:46;;;;;;;9.23;6.10;;;;;;;12.37;100.00;100990.09;6098726;23;20500;-75
2024/02/16 10:09:23;;;;;;;8.70;5.77;;;;;;;12.48;100.00;100985.94;6098993;23;20194;-75
2024/02/16 10:11:49;;;;;;;8.53;6.33;;;;;;;12.55;100.00;100992.25;6100112;23;20647;-74
2024/02/16 10:14:15;;;;;;;9.87;6.27;;;;;;;12.58;100.00;100996.13;6099213;23;20654;-75
2024/02/16 10:16:42;;;;;;;8.07;5.40;;;;;;;12.62;100.00;100992.47;6099015;23;20245;-75
2024/02/16 10:19:10;;;;;;;7.80;5.77;;;;;;;12.69;100.00;100989.28;6064121;23;20250;-75
2024/02/16 10:21:39;;;;;;;7.50;5.87;;;;;;;12.72;100.00;100985.97;6099926;23;20205;-75
2024/02/16 10:24:08;;;;;;;7.20;5.97;;;;;;;12.77;100.00;100985.75;6099389;23;20528;-75
2024/02/16 10:26:37;;;;;;;8.17;6.03;;;;;;;12.78;100.00;100982.78;6099790;23;20786;-75
2024/02/16 10:29:04;;;;;;;6.80;5.33;;;;;;;12.80;100.00;100972.63;6098963;23;20193;-75
2024/02/16 10:31:32;;;;;;;8.27;5.63;;;;;;;12.86;100.00;100966.00;6064354;23;20579;-75
2024/02/16 10:34:01;;;;;;;7.03;5.67;;;;;;;12.85;100.00;100969.00;6098744;23;20166;-75
2024/02/16 10:36:29;;;;;;;8.30;5.30;;;;;;;12.85;100.00;100961.03;6098497;23;20196;-74
2024/02/16 10:38:57;;;;;;;7.40;5.33;;;;;;;12.86;100.00;100962.56;6063978;23;20726;-74
2024/02/16 10:41:28;;;;;;;7.13;5.37;;;;;;;12.84;100.00;100962.91;6098818;23;20178;-74
2024/02/16 10:43:55;;;;;;;7.27;5.23;;;;;;;12.79;100.00;100965.78;6099399;23;20171;-74
2024/02/16 10:46:23;;;;;;;7.47;5.70;;;;;;;12.78;100.00;100963.47;6062894;23;20288;-74
2024/02/16 10:48:49;;;;;;;8.33;5.13;;;;;;;12.76;100.00;100963.00;6098942;23;20658;-74
2024/02/16 10:51:18;;;;;;;6.70;5.10;;;;;;;12.75;100.00;100964.13;6098082;23;20514;-75
2024/02/16 10:53:46;;;;;;;6.87;5.03;;;;;;;12.70;100.00;100964.34;6098413;23;20189;-74
2024/02/16 10:56:14;;;;;;;6.03;5.03;;;;;;;12.69;100.00;100960.13;6098425;23;20186;-74
2024/02/16 10:58:41;;;;;;;10.50;6.30;;;;;;;12.69;100.00;100965.44;6063143;23;20198;-74
2024/02/16 11:01:11;;;;;;;5.77;5.10;;;;;;;12.69;100.00;100958.25;6098693;23;20233;-74
2024/02/16 11:03:39;;;;;;;8.90;5.40;;;;;;;12.68;100.00;100958.59;6064220;23;20489;-75
2024/02/16 11:06:15;;;;;;;7.07;5.30;;;;;;;12.70;100.00;100953.72;6100556;23;20162;-74
2024/02/16 11:08:41;;;;;;;7.63;5.03;;;;;;;12.70;100.00;100959.81;6100378;23;20197;-74
2024/02/16 11:11:11;;;;;;;7.93;5.13;;;;;;;12.70;100.00;100961.69;6100081;23;20247;-74
2024/02/16 11:13:39;;;;;;;8.47;5.73;;;;;;;12.71;100.00;100955.28;6099794;23;20220;-74
2024/02/16 11:16:08;;;;;;;6.40;5.00;;;;;;;12.74;100.00;100954.63;6099832;23;20667;-74
2024/02/16 11:18:39;;;;;;;6.73;5.20;;;;;;;12.74;100.00;100955.38;6100415;23;20621;-74
2024/02/16 11:21:07;;;;;;;7.17;4.83;;;;;;;12.77;100.00;100959.25;6065166;23;20182;-74
2024/02/16 11:23:36;;;;;;;7.30;5.10;;;;;;;12.76;100.00;100953.19;6100333;23;20229;-74